sensor_id;sensor_type;location;lat;lon;timestamp;temperature;humidity
11497;DHT22;5805;51.542;7.230;2023-06-14T00:02:16;20.70;51.90
11497;DHT22;5805;51.542;7.230;2023-06-14T00:04:42;20.70;51.90
11497;DHT22;5805;51.542;7.230;2023-06-14T00:07:10;20.70;52.20
11497;DHT22;5805;51.542;7.230;2023-06-14T00:09:36;20.70;52.20
11497;DHT22;5805;51.542;7.230;2023-06-14T00:12:02;20.60;52.70
11497;DHT22;5805;51.542;7.230;2023-06-14T00:14:27;20.70;52.30
11497;DHT22;5805;51.542;7.230;2023-06-14T00:16:53;20.60;52.20
11497;DHT22;5805;51.542;7.230;2023-06-14T00:19:19;20.60;52.10
11497;DHT22;5805;51.542;7.230;2023-06-14T00:21:45;20.60;52.10
11497;DHT22;5805;51.542;7.230;2023-06-14T00:24:12;20.60;52.10
11497;DHT22;5805;51.542;7.230;2023-06-14T00:26:37;20.60;52.50
11497;DHT22;5805;51.542;7.230;2023-06-14T00:29:03;20.60;52.70
11497;DHT22;5805;51.542;7.230;2023-06-14T00:31:29;20.60;53.00
11497;DHT22;5805;51.542;7.230;2023-06-14T00:33:55;20.60;53.30
11497;DHT22;5805;51.542;7.230;2023-06-14T00:36:20;20.60;52.90
11497;DHT22;5805;51.542;7.230;2023-06-14T00:38:46;20.50;52.70
11497;DHT22;5805;51.542;7.230;2023-06-14T00:41:13;20.50;52.70
11497;DHT22;5805;51.542;7.230;2023-06-14T00:43:39;20.40;53.10
11497;DHT22;5805;51.542;7.230;2023-06-14T00:46:04;20.40;52.90
11497;DHT22;5805;51.542;7.230;2023-06-14T00:48:30;20.40;52.70
11497;DHT22;5805;51.542;7.230;2023-06-14T00:50:57;20.20;52.30
11497;DHT22;5805;51.542;7.230;2023-06-14T00:53:24;20.30;52.80
11497;DHT22;5805;51.542;7.230;2023-06-14T00:55:49;20.30;52.80
11497;DHT22;5805;51.542;7.230;2023-06-14T00:58:17;20.30;52.70
11497;DHT22;5805;51.542;7.230;2023-06-14T01:00:43;20.30;52.50
11497;DHT22;5805;51.542;7.230;2023-06-14T01:03:08;20.30;52.50
11497;DHT22;5805;51.542;7.230;2023-06-14T01:05:34;20.20;52.30
11497;DHT22;5805;51.542;7.230;2023-06-14T01:08:14;20.20;52.30
11497;DHT22;5805;51.542;7.230;2023-06-14T01:10:50;20.20;52.30
11497;DHT22;5805;51.542;7.230;2023-06-14T01:13:21;20.10;52.50
11497;DHT22;5805;51.542;7.230;2023-06-14T01:15:50;20.20;52.60
11497;DHT22;5805;51.542;7.230;2023-06-14T01:18:16;20.10;53.10
11497;DHT22;5805;51.542;7.230;2023-06-14T01:20:43;20.10;52.90
11497;DHT22;5805;51.542;7.230;2023-06-14T01:23:11;20.10;52.80
11497;DHT22;5805;51.542;7.230;2023-06-14T01:25:36;20.00;53.20
11497;DHT22;5805;51.542;7.230;2023-06-14T01:28:05;20.00;53.20
11497;DHT22;5805;51.542;7.230;2023-06-14T01:30:32;20.00;53.30
11497;DHT22;5805;51.542;7.230;2023-06-14T01:32:58;20.00;52.30
11497;DHT22;5805;51.542;7.230;2023-06-14T01:35:24;19.90;52.40
11497;DHT22;5805;51.542;7.230;2023-06-14T01:37:51;19.90;52.80
11497;DHT22;5805;51.542;7.230;2023-06-14T01:40:19;19.80;52.50
11497;DHT22;5805;51.542;7.230;2023-06-14T01:42:47;19.80;53.50
11497;DHT22;5805;51.542;7.230;2023-06-14T01:45:14;19.80;53.00
11497;DHT22;5805;51.542;7.230;2023-06-14T01:47:40;19.70;52.60
11497;DHT22;5805;51.542;7.230;2023-06-14T01:50:07;19.70;52.70
11497;DHT22;5805;51.542;7.230;2023-06-14T01:52:32;19.70;53.60
11497;DHT22;5805;51.542;7.230;2023-06-14T01:54:58;19.70;52.90
11497;DHT22;5805;51.542;7.230;2023-06-14T01:57:25;19.70;52.90
11497;DHT22;5805;51.542;7.230;2023-06-14T01:59:51;19.70;53.10
11497;DHT22;5805;51.542;7.230;2023-06-14T02:02:17;19.60;53.10
11497;DHT22;5805;51.542;7.230;2023-06-14T02:04:42;19.70;52.90
11497;DHT22;5805;51.542;7.230;2023-06-14T02:07:08;19.70;53.30
11497;DHT22;5805;51.542;7.230;2023-06-14T02:09:34;19.60;53.20
11497;DHT22;5805;51.542;7.230;2023-06-14T02:12:00;19.50;53.10
11497;DHT22;5805;51.542;7.230;2023-06-14T02:14:27;19.50;53.00
11497;DHT22;5805;51.542;7.230;2023-06-14T02:16:53;19.50;53.00
11497;DHT22;5805;51.542;7.230;2023-06-14T02:19:19;19.40;53.10
11497;DHT22;5805;51.542;7.230;2023-06-14T02:21:46;19.30;53.20
11497;DHT22;5805;51.542;7.230;2023-06-14T02:24:13;19.30;53.30
11497;DHT22;5805;51.542;7.230;2023-06-14T02:26:39;19.30;53.70
11497;DHT22;5805;51.542;7.230;2023-06-14T02:29:05;19.30;53.80
11497;DHT22;5805;51.542;7.230;2023-06-14T02:31:32;19.30;54.00
11497;DHT22;5805;51.542;7.230;2023-06-14T02:33:58;19.20;53.40
11497;DHT22;5805;51.542;7.230;2023-06-14T02:36:24;19.20;53.90
11497;DHT22;5805;51.542;7.230;2023-06-14T02:38:49;19.20;54.00
11497;DHT22;5805;51.542;7.230;2023-06-14T02:41:15;19.10;54.20
11497;DHT22;5805;51.542;7.230;2023-06-14T02:43:41;19.10;55.60
11497;DHT22;5805;51.542;7.230;2023-06-14T02:46:06;19.10;54.80
11497;DHT22;5805;51.542;7.230;2023-06-14T02:48:33;19.00;55.80
11497;DHT22;5805;51.542;7.230;2023-06-14T02:50:59;19.00;55.30
11497;DHT22;5805;51.542;7.230;2023-06-14T02:53:25;18.90;55.80
11497;DHT22;5805;51.542;7.230;2023-06-14T02:55:50;18.90;55.80
11497;DHT22;5805;51.542;7.230;2023-06-14T02:58:16;19.00;56.10
11497;DHT22;5805;51.542;7.230;2023-06-14T03:00:42;19.00;56.10
11497;DHT22;5805;51.542;7.230;2023-06-14T03:03:07;19.00;56.80
11497;DHT22;5805;51.542;7.230;2023-06-14T03:05:38;19.00;56.20
11497;DHT22;5805;51.542;7.230;2023-06-14T03:08:04;19.00;56.30
11497;DHT22;5805;51.542;7.230;2023-06-14T03:10:30;19.00;57.10
11497;DHT22;5805;51.542;7.230;2023-06-14T03:12:56;19.00;56.50
11497;DHT22;5805;51.542;7.230;2023-06-14T03:15:21;19.10;56.60
11497;DHT22;5805;51.542;7.230;2023-06-14T03:17:47;19.00;56.60
11497;DHT22;5805;51.542;7.230;2023-06-14T03:20:13;18.90;56.60
11497;DHT22;5805;51.542;7.230;2023-06-14T03:22:40;18.80;57.40
11497;DHT22;5805;51.542;7.230;2023-06-14T03:25:06;18.80;57.60
11497;DHT22;5805;51.542;7.230;2023-06-14T03:27:32;18.80;57.80
11497;DHT22;5805;51.542;7.230;2023-06-14T03:29:58;18.70;58.40
11497;DHT22;5805;51.542;7.230;2023-06-14T03:32:24;18.70;58.70
11497;DHT22;5805;51.542;7.230;2023-06-14T03:34:49;18.60;59.10
11497;DHT22;5805;51.542;7.230;2023-06-14T03:37:15;18.60;59.30
11497;DHT22;5805;51.542;7.230;2023-06-14T03:39:42;18.70;59.90
11497;DHT22;5805;51.542;7.230;2023-06-14T03:42:08;18.80;59.80
11497;DHT22;5805;51.542;7.230;2023-06-14T03:44:34;18.80;60.00
11497;DHT22;5805;51.542;7.230;2023-06-14T03:46:59;18.80;60.00
11497;DHT22;5805;51.542;7.230;2023-06-14T03:49:25;18.80;60.20
11497;DHT22;5805;51.542;7.230;2023-06-14T03:51:51;18.80;60.10
11497;DHT22;5805;51.542;7.230;2023-06-14T03:54:16;18.90;61.10
11497;DHT22;5805;51.542;7.230;2023-06-14T03:56:46;18.90;61.20
11497;DHT22;5805;51.542;7.230;2023-06-14T03:59:11;18.90;60.90
11497;DHT22;5805;51.542;7.230;2023-06-14T04:01:37;18.90;61.00
11497;DHT22;5805;51.542;7.230;2023-06-14T04:04:03;18.80;61.00
11497;DHT22;5805;51.542;7.230;2023-06-14T04:06:29;18.80;61.60
11497;DHT22;5805;51.542;7.230;2023-06-14T04:08:54;18.80;62.20
11497;DHT22;5805;51.542;7.230;2023-06-14T04:11:20;18.80;62.10
11497;DHT22;5805;51.542;7.230;2023-06-14T04:13:47;18.80;62.60
11497;DHT22;5805;51.542;7.230;2023-06-14T04:16:13;18.80;62.70
11497;DHT22;5805;51.542;7.230;2023-06-14T04:18:39;18.80;63.90
11497;DHT22;5805;51.542;7.230;2023-06-14T04:21:04;18.90;64.10
11497;DHT22;5805;51.542;7.230;2023-06-14T04:23:30;19.00;63.90
11497;DHT22;5805;51.542;7.230;2023-06-14T04:25:56;19.00;64.20
11497;DHT22;5805;51.542;7.230;2023-06-14T04:28:21;19.00;64.80
11497;DHT22;5805;51.542;7.230;2023-06-14T04:30:49;19.00;65.20
11497;DHT22;5805;51.542;7.230;2023-06-14T04:33:14;18.90;64.80
11497;DHT22;5805;51.542;7.230;2023-06-14T04:35:40;19.00;66.70
11497;DHT22;5805;51.542;7.230;2023-06-14T04:38:06;18.90;65.40
11497;DHT22;5805;51.542;7.230;2023-06-14T04:40:32;19.00;66.80
11497;DHT22;5805;51.542;7.230;2023-06-14T04:43:01;19.10;67.20
11497;DHT22;5805;51.542;7.230;2023-06-14T04:45:26;19.00;66.30
11497;DHT22;5805;51.542;7.230;2023-06-14T04:47:54;19.00;66.80
11497;DHT22;5805;51.542;7.230;2023-06-14T04:50:19;19.10;67.00
11497;DHT22;5805;51.542;7.230;2023-06-14T04:52:45;19.20;68.20
11497;DHT22;5805;51.542;7.230;2023-06-14T04:55:11;19.10;67.50
11497;DHT22;5805;51.542;7.230;2023-06-14T04:57:36;19.20;67.50
11497;DHT22;5805;51.542;7.230;2023-06-14T05:00:02;19.30;68.00
11497;DHT22;5805;51.542;7.230;2023-06-14T05:02:28;19.30;67.30
11497;DHT22;5805;51.542;7.230;2023-06-14T05:04:55;19.20;67.30
11497;DHT22;5805;51.542;7.230;2023-06-14T05:07:21;19.20;68.60
11497;DHT22;5805;51.542;7.230;2023-06-14T05:09:46;19.30;68.70
11497;DHT22;5805;51.542;7.230;2023-06-14T05:12:12;19.30;68.40
11497;DHT22;5805;51.542;7.230;2023-06-14T05:14:38;19.40;68.40
11497;DHT22;5805;51.542;7.230;2023-06-14T05:17:04;19.50;68.80
11497;DHT22;5805;51.542;7.230;2023-06-14T05:19:30;19.40;68.00
11497;DHT22;5805;51.542;7.230;2023-06-14T05:21:57;19.40;68.10
11497;DHT22;5805;51.542;7.230;2023-06-14T05:24:23;19.50;69.00
11497;DHT22;5805;51.542;7.230;2023-06-14T05:26:48;19.60;70.10
11497;DHT22;5805;51.542;7.230;2023-06-14T05:29:14;19.50;68.60
11497;DHT22;5805;51.542;7.230;2023-06-14T05:31:40;19.60;69.70
11497;DHT22;5805;51.542;7.230;2023-06-14T05:34:05;19.70;69.50
11497;DHT22;5805;51.542;7.230;2023-06-14T05:36:31;19.70;70.10
11497;DHT22;5805;51.542;7.230;2023-06-14T05:38:58;19.70;69.30
11497;DHT22;5805;51.542;7.230;2023-06-14T05:41:24;19.80;69.70
11497;DHT22;5805;51.542;7.230;2023-06-14T05:43:50;19.80;70.20
11497;DHT22;5805;51.542;7.230;2023-06-14T05:46:15;19.90;69.70
11497;DHT22;5805;51.542;7.230;2023-06-14T05:48:41;19.80;69.30
11497;DHT22;5805;51.542;7.230;2023-06-14T05:51:07;19.90;70.20
11497;DHT22;5805;51.542;7.230;2023-06-14T05:53:32;19.80;69.40
11497;DHT22;5805;51.542;7.230;2023-06-14T05:56:00;19.90;69.70
11497;DHT22;5805;51.542;7.230;2023-06-14T05:58:25;19.80;69.30
11497;DHT22;5805;51.542;7.230;2023-06-14T06:00:51;19.90;69.20
11497;DHT22;5805;51.542;7.230;2023-06-14T06:03:17;19.90;68.20
11497;DHT22;5805;51.542;7.230;2023-06-14T06:05:43;19.90;68.30
11497;DHT22;5805;51.542;7.230;2023-06-14T06:08:08;20.10;67.70
11497;DHT22;5805;51.542;7.230;2023-06-14T06:10:34;20.10;67.10
11497;DHT22;5805;51.542;7.230;2023-06-14T06:13:01;20.10;66.50
11497;DHT22;5805;51.542;7.230;2023-06-14T06:15:27;20.30;66.50
11497;DHT22;5805;51.542;7.230;2023-06-14T06:17:52;20.50;65.20
11497;DHT22;5805;51.542;7.230;2023-06-14T06:20:18;20.50;65.50
11497;DHT22;5805;51.542;7.230;2023-06-14T06:22:44;20.70;64.80
11497;DHT22;5805;51.542;7.230;2023-06-14T06:25:09;21.10;63.60
11497;DHT22;5805;51.542;7.230;2023-06-14T06:27:35;21.40;63.10
11497;DHT22;5805;51.542;7.230;2023-06-14T06:30:03;21.70;60.90
11497;DHT22;5805;51.542;7.230;2023-06-14T06:32:29;21.80;60.00
11497;DHT22;5805;51.542;7.230;2023-06-14T06:34:57;21.90;58.70
11497;DHT22;5805;51.542;7.230;2023-06-14T06:37:22;21.90;58.60
11497;DHT22;5805;51.542;7.230;2023-06-14T06:39:48;22.00;59.00
11497;DHT22;5805;51.542;7.230;2023-06-14T06:42:14;22.10;57.90
11497;DHT22;5805;51.542;7.230;2023-06-14T06:44:39;22.30;57.00
11497;DHT22;5805;51.542;7.230;2023-06-14T06:47:06;22.40;57.00
11497;DHT22;5805;51.542;7.230;2023-06-14T06:49:32;22.60;56.30
11497;DHT22;5805;51.542;7.230;2023-06-14T06:52:01;22.70;55.90
11497;DHT22;5805;51.542;7.230;2023-06-14T06:54:27;22.90;54.90
11497;DHT22;5805;51.542;7.230;2023-06-14T06:56:53;23.00;54.30
11497;DHT22;5805;51.542;7.230;2023-06-14T06:59:18;23.10;54.00
11497;DHT22;5805;51.542;7.230;2023-06-14T07:01:44;23.30;53.30
11497;DHT22;5805;51.542;7.230;2023-06-14T07:04:12;23.40;52.50
11497;DHT22;5805;51.542;7.230;2023-06-14T07:06:38;23.40;52.60
11497;DHT22;5805;51.542;7.230;2023-06-14T07:09:04;23.60;52.10
11497;DHT22;5805;51.542;7.230;2023-06-14T07:11:29;23.70;51.80
11497;DHT22;5805;51.542;7.230;2023-06-14T07:13:55;23.80;51.00
11497;DHT22;5805;51.542;7.230;2023-06-14T07:16:21;23.90;50.60
11497;DHT22;5805;51.542;7.230;2023-06-14T07:18:47;23.90;50.60
11497;DHT22;5805;51.542;7.230;2023-06-14T07:21:14;24.00;50.50
11497;DHT22;5805;51.542;7.230;2023-06-14T07:23:39;24.10;50.80
11497;DHT22;5805;51.542;7.230;2023-06-14T07:26:05;24.20;49.90
11497;DHT22;5805;51.542;7.230;2023-06-14T07:28:31;24.30;50.10
11497;DHT22;5805;51.542;7.230;2023-06-14T07:30:56;24.30;49.00
11497;DHT22;5805;51.542;7.230;2023-06-14T07:33:22;24.30;48.90
11497;DHT22;5805;51.542;7.230;2023-06-14T07:35:48;24.30;49.00
11497;DHT22;5805;51.542;7.230;2023-06-14T07:38:15;24.20;48.50
11497;DHT22;5805;51.542;7.230;2023-06-14T07:40:41;24.20;48.80
11497;DHT22;5805;51.542;7.230;2023-06-14T07:43:06;24.30;48.70
11497;DHT22;5805;51.542;7.230;2023-06-14T07:45:32;24.30;48.10
11497;DHT22;5805;51.542;7.230;2023-06-14T07:47:58;24.40;48.40
11497;DHT22;5805;51.542;7.230;2023-06-14T07:50:23;24.50;48.00
11497;DHT22;5805;51.542;7.230;2023-06-14T07:52:49;24.60;47.90
11497;DHT22;5805;51.542;7.230;2023-06-14T07:55:16;24.70;47.60
11497;DHT22;5805;51.542;7.230;2023-06-14T07:57:42;24.80;47.40
11497;DHT22;5805;51.542;7.230;2023-06-14T08:00:08;25.00;46.80
11497;DHT22;5805;51.542;7.230;2023-06-14T08:02:34;25.00;46.80
11497;DHT22;5805;51.542;7.230;2023-06-14T08:05:00;25.30;45.00
11497;DHT22;5805;51.542;7.230;2023-06-14T08:07:26;25.40;45.80
11497;DHT22;5805;51.542;7.230;2023-06-14T08:09:51;25.50;45.00
11497;DHT22;5805;51.542;7.230;2023-06-14T08:12:18;25.60;44.90
11497;DHT22;5805;51.542;7.230;2023-06-14T08:14:44;25.70;44.80
11497;DHT22;5805;51.542;7.230;2023-06-14T08:17:10;25.80;45.40
11497;DHT22;5805;51.542;7.230;2023-06-14T08:19:35;26.00;44.20
11497;DHT22;5805;51.542;7.230;2023-06-14T08:22:01;26.10;44.30
11497;DHT22;5805;51.542;7.230;2023-06-14T08:24:27;26.20;43.90
11497;DHT22;5805;51.542;7.230;2023-06-14T08:26:52;26.30;43.50
11497;DHT22;5805;51.542;7.230;2023-06-14T08:29:20;26.40;43.10
11497;DHT22;5805;51.542;7.230;2023-06-14T08:31:46;26.50;43.30
11497;DHT22;5805;51.542;7.230;2023-06-14T08:34:11;26.90;42.90
11497;DHT22;5805;51.542;7.230;2023-06-14T08:36:37;27.30;41.50
11497;DHT22;5805;51.542;7.230;2023-06-14T08:39:03;27.80;42.90
11497;DHT22;5805;51.542;7.230;2023-06-14T08:41:29;29.10;41.90
11497;DHT22;5805;51.542;7.230;2023-06-14T08:43:55;30.90;40.10
11497;DHT22;5805;51.542;7.230;2023-06-14T08:46:25;33.30;33.70
11497;DHT22;5805;51.542;7.230;2023-06-14T08:48:51;35.90;29.90
11497;DHT22;5805;51.542;7.230;2023-06-14T08:51:19;38.20;27.10
11497;DHT22;5805;51.542;7.230;2023-06-14T08:53:45;40.30;25.00
11497;DHT22;5805;51.542;7.230;2023-06-14T08:56:11;41.70;23.50
11497;DHT22;5805;51.542;7.230;2023-06-14T08:58:37;43.00;22.60
11497;DHT22;5805;51.542;7.230;2023-06-14T09:01:04;43.30;20.70
11497;DHT22;5805;51.542;7.230;2023-06-14T09:03:31;42.80;20.50
11497;DHT22;5805;51.542;7.230;2023-06-14T09:05:57;42.00;20.30
11497;DHT22;5805;51.542;7.230;2023-06-14T09:08:23;40.40;21.40
11497;DHT22;5805;51.542;7.230;2023-06-14T09:10:48;38.90;22.10
11497;DHT22;5805;51.542;7.230;2023-06-14T09:13:14;37.50;23.30
11497;DHT22;5805;51.542;7.230;2023-06-14T09:15:40;36.40;24.10
11497;DHT22;5805;51.542;7.230;2023-06-14T09:18:05;35.40;24.40
11497;DHT22;5805;51.542;7.230;2023-06-14T09:20:32;34.30;24.70
11497;DHT22;5805;51.542;7.230;2023-06-14T09:22:58;33.60;26.20
11497;DHT22;5805;51.542;7.230;2023-06-14T09:25:24;32.90;26.40
11497;DHT22;5805;51.542;7.230;2023-06-14T09:27:51;32.50;26.80
11497;DHT22;5805;51.542;7.230;2023-06-14T09:30:20;32.10;26.60
11497;DHT22;5805;51.542;7.230;2023-06-14T09:32:46;31.90;27.40
11497;DHT22;5805;51.542;7.230;2023-06-14T09:35:12;31.70;27.60
11497;DHT22;5805;51.542;7.230;2023-06-14T09:37:39;31.50;27.90
11497;DHT22;5805;51.542;7.230;2023-06-14T09:40:05;31.40;28.20
11497;DHT22;5805;51.542;7.230;2023-06-14T09:42:31;31.10;28.00
11497;DHT22;5805;51.542;7.230;2023-06-14T09:44:57;31.10;27.90
11497;DHT22;5805;51.542;7.230;2023-06-14T09:47:24;30.90;27.50
11497;DHT22;5805;51.542;7.230;2023-06-14T09:49:50;30.70;27.20
11497;DHT22;5805;51.542;7.230;2023-06-14T09:52:17;30.70;28.00
11497;DHT22;5805;51.542;7.230;2023-06-14T09:54:46;30.50;27.60
11497;DHT22;5805;51.542;7.230;2023-06-14T09:57:13;30.40;27.90
11497;DHT22;5805;51.542;7.230;2023-06-14T09:59:42;30.30;28.30
11497;DHT22;5805;51.542;7.230;2023-06-14T10:02:17;30.20;28.50
11497;DHT22;5805;51.542;7.230;2023-06-14T10:04:49;30.20;28.60
11497;DHT22;5805;51.542;7.230;2023-06-14T10:07:19;30.30;29.10
11497;DHT22;5805;51.542;7.230;2023-06-14T10:09:47;30.40;28.80
11497;DHT22;5805;51.542;7.230;2023-06-14T10:12:13;30.20;28.40
11497;DHT22;5805;51.542;7.230;2023-06-14T10:14:38;30.10;28.80
11497;DHT22;5805;51.542;7.230;2023-06-14T10:17:07;30.10;29.10
11497;DHT22;5805;51.542;7.230;2023-06-14T10:19:50;30.10;29.40
11497;DHT22;5805;51.542;7.230;2023-06-14T10:22:19;30.10;29.70
11497;DHT22;5805;51.542;7.230;2023-06-14T10:24:49;30.30;29.90
11497;DHT22;5805;51.542;7.230;2023-06-14T10:27:15;30.30;29.60
11497;DHT22;5805;51.542;7.230;2023-06-14T10:30:03;30.20;29.70
11497;DHT22;5805;51.542;7.230;2023-06-14T10:32:29;30.30;29.60
11497;DHT22;5805;51.542;7.230;2023-06-14T10:34:56;30.30;29.50
11497;DHT22;5805;51.542;7.230;2023-06-14T10:37:21;30.30;29.60
11497;DHT22;5805;51.542;7.230;2023-06-14T10:39:49;30.10;29.10
11497;DHT22;5805;51.542;7.230;2023-06-14T10:42:15;29.90;28.80
11497;DHT22;5805;51.542;7.230;2023-06-14T10:44:43;29.80;29.30
11497;DHT22;5805;51.542;7.230;2023-06-14T10:47:21;29.80;29.70
11497;DHT22;5805;51.542;7.230;2023-06-14T10:49:50;29.40;28.50
11497;DHT22;5805;51.542;7.230;2023-06-14T10:52:17;29.30;29.30
11497;DHT22;5805;51.542;7.230;2023-06-14T10:55:09;29.20;30.10
11497;DHT22;5805;51.542;7.230;2023-06-14T10:57:36;29.30;30.80
11497;DHT22;5805;51.542;7.230;2023-06-14T11:00:03;29.40;30.80
11497;DHT22;5805;51.542;7.230;2023-06-14T11:03:03;29.40;30.70
11497;DHT22;5805;51.542;7.230;2023-06-14T11:05:45;29.50;30.80
11497;DHT22;5805;51.542;7.230;2023-06-14T11:08:33;29.60;30.70
11497;DHT22;5805;51.542;7.230;2023-06-14T11:11:07;29.60;30.50
11497;DHT22;5805;51.542;7.230;2023-06-14T11:13:33;29.50;31.10
11497;DHT22;5805;51.542;7.230;2023-06-14T11:15:59;29.50;30.90
11497;DHT22;5805;51.542;7.230;2023-06-14T11:18:25;29.60;31.00
11497;DHT22;5805;51.542;7.230;2023-06-14T11:20:51;29.60;31.90
11497;DHT22;5805;51.542;7.230;2023-06-14T11:23:16;29.70;32.40
11497;DHT22;5805;51.542;7.230;2023-06-14T11:25:42;29.80;31.00
11497;DHT22;5805;51.542;7.230;2023-06-14T11:28:09;29.80;31.50
11497;DHT22;5805;51.542;7.230;2023-06-14T11:30:35;29.70;31.30
11497;DHT22;5805;51.542;7.230;2023-06-14T11:33:01;29.60;32.20
11497;DHT22;5805;51.542;7.230;2023-06-14T11:35:26;29.50;31.60
11497;DHT22;5805;51.542;7.230;2023-06-14T11:37:53;29.40;32.30
11497;DHT22;5805;51.542;7.230;2023-06-14T11:40:19;29.40;32.10
11497;DHT22;5805;51.542;7.230;2023-06-14T11:42:44;29.30;31.90
11497;DHT22;5805;51.542;7.230;2023-06-14T11:45:12;29.30;32.70
11497;DHT22;5805;51.542;7.230;2023-06-14T11:47:38;29.40;32.20
11497;DHT22;5805;51.542;7.230;2023-06-14T11:50:06;29.50;31.70
11497;DHT22;5805;51.542;7.230;2023-06-14T11:52:32;29.40;32.10
11497;DHT22;5805;51.542;7.230;2023-06-14T11:54:58;29.40;32.20
11497;DHT22;5805;51.542;7.230;2023-06-14T11:57:24;29.30;31.70
11497;DHT22;5805;51.542;7.230;2023-06-14T11:59:50;29.40;32.30
11497;DHT22;5805;51.542;7.230;2023-06-14T12:02:18;29.30;32.30
11497;DHT22;5805;51.542;7.230;2023-06-14T12:04:46;29.30;32.20
11497;DHT22;5805;51.542;7.230;2023-06-14T12:07:13;29.40;32.70
11497;DHT22;5805;51.542;7.230;2023-06-14T12:09:40;29.40;32.30
11497;DHT22;5805;51.542;7.230;2023-06-14T12:12:06;29.40;32.00
11497;DHT22;5805;51.542;7.230;2023-06-14T12:14:32;29.30;32.20
11497;DHT22;5805;51.542;7.230;2023-06-14T12:17:04;29.30;32.90
11497;DHT22;5805;51.542;7.230;2023-06-14T12:19:32;29.30;32.80
11497;DHT22;5805;51.542;7.230;2023-06-14T12:21:59;29.30;32.80
11497;DHT22;5805;51.542;7.230;2023-06-14T12:24:28;29.30;33.40
11497;DHT22;5805;51.542;7.230;2023-06-14T12:26:53;29.40;32.90
11497;DHT22;5805;51.542;7.230;2023-06-14T12:29:19;29.50;32.80
11497;DHT22;5805;51.542;7.230;2023-06-14T12:31:45;29.50;32.60
11497;DHT22;5805;51.542;7.230;2023-06-14T12:34:11;29.60;32.20
11497;DHT22;5805;51.542;7.230;2023-06-14T12:36:39;29.60;32.80
11497;DHT22;5805;51.542;7.230;2023-06-14T12:39:04;29.60;32.70
11497;DHT22;5805;51.542;7.230;2023-06-14T12:41:30;29.50;32.80
11497;DHT22;5805;51.542;7.230;2023-06-14T12:43:56;29.60;32.80
11497;DHT22;5805;51.542;7.230;2023-06-14T12:46:22;29.60;32.80
11497;DHT22;5805;51.542;7.230;2023-06-14T12:48:47;29.50;32.40
11497;DHT22;5805;51.542;7.230;2023-06-14T12:51:13;29.40;33.20
11497;DHT22;5805;51.542;7.230;2023-06-14T12:53:40;29.40;32.70
11497;DHT22;5805;51.542;7.230;2023-06-14T12:56:06;29.40;32.90
11497;DHT22;5805;51.542;7.230;2023-06-14T12:58:31;29.40;32.70
11497;DHT22;5805;51.542;7.230;2023-06-14T13:00:57;29.40;32.70
11497;DHT22;5805;51.542;7.230;2023-06-14T13:03:23;29.30;32.30
11497;DHT22;5805;51.542;7.230;2023-06-14T13:05:49;29.20;32.60
11497;DHT22;5805;51.542;7.230;2023-06-14T13:08:14;29.00;32.60
11497;DHT22;5805;51.542;7.230;2023-06-14T13:10:41;29.00;32.90
11497;DHT22;5805;51.542;7.230;2023-06-14T13:13:07;29.00;32.70
11497;DHT22;5805;51.542;7.230;2023-06-14T13:15:33;29.00;32.40
11497;DHT22;5805;51.542;7.230;2023-06-14T13:17:58;28.90;32.60
11497;DHT22;5805;51.542;7.230;2023-06-14T13:20:24;29.00;33.10
11497;DHT22;5805;51.542;7.230;2023-06-14T13:22:50;29.00;32.90
11497;DHT22;5805;51.542;7.230;2023-06-14T13:25:16;28.90;32.70
11497;DHT22;5805;51.542;7.230;2023-06-14T13:27:43;28.80;32.80
11497;DHT22;5805;51.542;7.230;2023-06-14T13:30:09;28.80;32.70
11497;DHT22;5805;51.542;7.230;2023-06-14T13:32:35;28.80;32.90
11497;DHT22;5805;51.542;7.230;2023-06-14T13:35:01;28.70;32.50
11497;DHT22;5805;51.542;7.230;2023-06-14T13:37:27;28.60;32.50
11497;DHT22;5805;51.542;7.230;2023-06-14T13:39:52;28.40;32.90
11497;DHT22;5805;51.542;7.230;2023-06-14T13:42:18;28.30;33.20
11497;DHT22;5805;51.542;7.230;2023-06-14T13:44:45;28.20;33.10
11497;DHT22;5805;51.542;7.230;2023-06-14T13:47:11;28.10;32.90
11497;DHT22;5805;51.542;7.230;2023-06-14T13:49:36;28.00;34.00
11497;DHT22;5805;51.542;7.230;2023-06-14T13:52:02;28.00;33.90
11497;DHT22;5805;51.542;7.230;2023-06-14T13:54:28;27.90;33.60
11497;DHT22;5805;51.542;7.230;2023-06-14T13:56:54;27.90;34.10
11497;DHT22;5805;51.542;7.230;2023-06-14T13:59:20;27.80;34.90
11497;DHT22;5805;51.542;7.230;2023-06-14T14:01:47;27.70;34.20
11497;DHT22;5805;51.542;7.230;2023-06-14T14:04:12;27.70;33.70
11497;DHT22;5805;51.542;7.230;2023-06-14T14:06:38;27.70;34.30
11497;DHT22;5805;51.542;7.230;2023-06-14T14:09:04;27.70;35.00
11497;DHT22;5805;51.542;7.230;2023-06-14T14:11:29;27.70;34.50
11497;DHT22;5805;51.542;7.230;2023-06-14T14:13:55;27.60;34.90
11497;DHT22;5805;51.542;7.230;2023-06-14T14:16:21;27.60;34.50
11497;DHT22;5805;51.542;7.230;2023-06-14T14:18:48;27.50;34.50
11497;DHT22;5805;51.542;7.230;2023-06-14T14:21:14;27.40;34.80
11497;DHT22;5805;51.542;7.230;2023-06-14T14:23:39;27.40;34.90
11497;DHT22;5805;51.542;7.230;2023-06-14T14:26:05;27.40;34.80
11497;DHT22;5805;51.542;7.230;2023-06-14T14:28:31;27.40;35.50
11497;DHT22;5805;51.542;7.230;2023-06-14T14:30:56;27.30;34.60
11497;DHT22;5805;51.542;7.230;2023-06-14T14:33:22;27.30;35.00
11497;DHT22;5805;51.542;7.230;2023-06-14T14:35:50;27.30;35.20
11497;DHT22;5805;51.542;7.230;2023-06-14T14:38:16;27.30;35.40
11497;DHT22;5805;51.542;7.230;2023-06-14T14:40:42;27.20;35.50
11497;DHT22;5805;51.542;7.230;2023-06-14T14:43:08;27.20;35.70
11497;DHT22;5805;51.542;7.230;2023-06-14T14:45:33;27.20;35.40
11497;DHT22;5805;51.542;7.230;2023-06-14T14:48:00;27.10;35.20
11497;DHT22;5805;51.542;7.230;2023-06-14T14:50:26;26.90;35.30
11497;DHT22;5805;51.542;7.230;2023-06-14T14:52:53;26.80;35.40
11497;DHT22;5805;51.542;7.230;2023-06-14T14:55:19;26.80;35.60
11497;DHT22;5805;51.542;7.230;2023-06-14T14:57:46;26.90;35.80
11497;DHT22;5805;51.542;7.230;2023-06-14T15:00:12;26.90;35.60
11497;DHT22;5805;51.542;7.230;2023-06-14T15:02:38;26.90;35.60
11497;DHT22;5805;51.542;7.230;2023-06-14T15:05:04;26.90;35.40
11497;DHT22;5805;51.542;7.230;2023-06-14T15:07:30;26.90;35.20
11497;DHT22;5805;51.542;7.230;2023-06-14T15:09:58;26.90;35.60
11497;DHT22;5805;51.542;7.230;2023-06-14T15:12:23;27.00;35.80
11497;DHT22;5805;51.542;7.230;2023-06-14T15:14:50;26.80;34.90
11497;DHT22;5805;51.542;7.230;2023-06-14T15:17:15;26.80;35.40
11497;DHT22;5805;51.542;7.230;2023-06-14T15:19:41;26.80;35.80
11497;DHT22;5805;51.542;7.230;2023-06-14T15:22:07;26.90;35.20
11497;DHT22;5805;51.542;7.230;2023-06-14T15:24:32;26.80;34.80
11497;DHT22;5805;51.542;7.230;2023-06-14T15:26:59;26.80;34.80
11497;DHT22;5805;51.542;7.230;2023-06-14T15:29:25;26.70;34.90
11497;DHT22;5805;51.542;7.230;2023-06-14T15:31:51;26.50;34.80
11497;DHT22;5805;51.542;7.230;2023-06-14T15:34:17;26.50;35.10
11497;DHT22;5805;51.542;7.230;2023-06-14T15:36:42;26.50;35.70
11497;DHT22;5805;51.542;7.230;2023-06-14T15:39:08;26.50;35.00
11497;DHT22;5805;51.542;7.230;2023-06-14T15:41:34;26.40;34.90